Time;durP1;ratioP1;P1;durP2;ratioP2;P2;SDS_P1;SDS_P2;PMS_P1;PMS_P2;Temp;Humidity;BMP_temperature;BMP_pressure;BME280_temperature;BME280_humidity;BME280_pressure;Samples;Min_cycle;Max_cycle;Signal;HPM_P1;HPM_P2
2022/01/02 00:00:48;;;;;;;0.40;0.40;;;9.50;99.90;;;;;;5058720;28;20439;-67
2022/01/02 00:03:38;;;;;;;0.40;0.40;;;9.70;99.90;;;;;;5073203;28;20465;-67
2022/01/02 00:06:26;;;;;;;0.40;0.40;;;9.60;99.90;;;;;;5072867;28;20962;-67
2022/01/02 00:09:31;;;;;;;0.40;0.40;;;9.50;99.90;;;;;;5072365;28;20451;-67
2022/01/02 00:12:21;;;;;;;0.40;0.40;;;9.60;99.90;;;;;;5073391;28;20419;-67
2022/01/02 00:15:09;;;;;;;0.40;0.40;;;9.40;99.90;;;;;;5072944;28;20555;-67
2022/01/02 00:18:05;;;;;;;0.40;0.40;;;9.30;99.90;;;;;;5072798;28;20441;-67
2022/01/02 00:20:55;;;;;;;0.40;0.40;;;9.40;99.90;;;;;;5072199;28;21014;-67
2022/01/02 00:23:55;;;;;;;0.40;0.40;;;9.20;99.90;;;;;;5075325;28;20494;-67
2022/01/02 00:26:45;;;;;;;0.40;0.40;;;9.10;99.90;;;;;;5076188;28;20988;-67
2022/01/02 00:29:32;;;;;;;0.40;0.40;;;9.10;99.90;;;;;;5076323;28;20425;-67
2022/01/02 00:32:22;;;;;;;0.40;0.40;;;9.20;99.90;;;;;;5077459;28;20947;-67
2022/01/02 00:35:11;;;;;;;0.40;0.40;;;9.10;99.90;;;;;;5076370;28;20466;-67
2022/01/02 00:37:58;;;;;;;0.40;0.40;;;9.00;99.90;;;;;;5076758;28;20461;-67
2022/01/02 00:40:46;;;;;;;0.60;0.60;;;9.00;99.90;;;;;;5076110;28;20427;-67
2022/01/02 00:43:42;;;;;;;0.40;0.40;;;9.00;99.90;;;;;;5076199;28;20505;-67
2022/01/02 00:46:33;;;;;;;0.40;0.40;;;9.00;99.90;;;;;;5076107;28;20446;-68
2022/01/02 00:49:24;;;;;;;0.40;0.40;;;9.00;99.90;;;;;;5075912;28;20415;-67
2022/01/02 00:52:17;;;;;;;0.40;0.40;;;9.00;99.90;;;;;;5077672;28;20431;-67
2022/01/02 00:55:06;;;;;;;0.40;0.40;;;9.00;99.90;;;;;;5075080;28;20470;-67
2022/01/02 00:57:57;;;;;;;0.40;0.40;;;9.00;99.90;;;;;;5075707;28;20422;-67
2022/01/02 01:00:49;;;;;;;0.40;0.40;;;9.00;99.90;;;;;;5071023;28;20994;-67
2022/01/02 01:03:40;;;;;;;0.40;0.40;;;9.00;99.90;;;;;;5057372;28;20448;-67
2022/01/02 01:06:32;;;;;;;0.40;0.40;;;9.00;99.90;;;;;;5056894;28;20494;-67
2022/01/02 01:09:21;;;;;;;0.40;0.40;;;9.00;99.90;;;;;;5057014;28;21007;-67
2022/01/02 01:12:10;;;;;;;0.40;0.40;;;9.10;99.90;;;;;;5057356;28;20459;-67
2022/01/02 01:14:57;;;;;;;0.40;0.40;;;9.00;99.90;;;;;;5056851;28;20843;-67
2022/01/02 01:17:45;;;;;;;0.40;0.40;;;9.00;99.90;;;;;;5057078;28;20424;-67
2022/01/02 01:20:35;;;;;;;0.40;0.40;;;9.00;99.90;;;;;;5056410;28;20454;-67
2022/01/02 01:23:22;;;;;;;0.40;0.40;;;9.00;99.90;;;;;;5055337;28;20473;-67
2022/01/02 01:26:12;;;;;;;0.40;0.40;;;9.00;99.90;;;;;;5056037;28;20990;-67
2022/01/02 01:28:59;;;;;;;0.40;0.40;;;9.00;99.90;;;;;;5056093;28;20444;-67
2022/01/02 01:31:46;;;;;;;0.40;0.40;;;9.10;99.90;;;;;;5056736;28;20517;-67
2022/01/02 01:34:33;;;;;;;0.40;0.40;;;7.80;99.90;;;;;;5054342;28;20463;-67
2022/01/02 01:37:20;;;;;;;0.40;0.40;;;9.10;99.90;;;;;;5055467;28;20952;-67
2022/01/02 01:40:10;;;;;;;0.40;0.40;;;9.10;99.90;;;;;;5056297;28;20521;-67
2022/01/02 01:43:00;;;;;;;0.40;0.40;;;9.10;99.90;;;;;;5056315;28;20455;-67
2022/01/02 01:45:47;;;;;;;0.40;0.40;;;9.10;99.90;;;;;;5056376;28;20451;-68
2022/01/02 01:48:34;;;;;;;0.40;0.40;;;9.10;99.90;;;;;;5055536;28;20463;-67
2022/01/02 01:51:22;;;;;;;0.40;0.40;;;9.00;99.90;;;;;;5056239;28;20521;-67
2022/01/02 01:54:09;;;;;;;0.40;0.40;;;9.00;99.90;;;;;;5055600;28;20428;-67
2022/01/02 01:56:56;;;;;;;0.40;0.40;;;9.00;99.90;;;;;;5056933;28;20597;-67
2022/01/02 01:59:47;;;;;;;0.40;0.40;;;9.10;99.90;;;;;;5056216;28;20473;-68
2022/01/02 02:02:34;;;;;;;0.40;0.40;;;9.10;99.90;;;;;;5075310;28;20431;-68
2022/01/02 02:05:21;;;;;;;0.40;0.40;;;9.00;99.90;;;;;;5074999;28;20486;-67
2022/01/02 02:08:09;;;;;;;0.40;0.40;;;8.90;99.90;;;;;;5074724;28;20415;-67
2022/01/02 02:10:57;;;;;;;0.40;0.40;;;8.90;99.90;;;;;;5074222;28;20435;-67
2022/01/02 02:13:45;;;;;;;0.40;0.40;;;8.80;99.90;;;;;;5072139;28;20430;-67
2022/01/02 02:16:35;;;;;;;0.40;0.40;;;8.80;99.90;;;;;;5059041;28;21027;-67
2022/01/02 02:19:22;;;;;;;0.40;0.40;;;8.70;99.90;;;;;;5055261;28;20452;-67
2022/01/02 02:22:12;;;;;;;0.40;0.40;;;8.60;99.90;;;;;;5055452;28;20784;-67
2022/01/02 02:24:59;;;;;;;0.40;0.40;;;8.60;99.90;;;;;;5055652;28;20438;-68
2022/01/02 02:27:49;;;;;;;0.40;0.40;;;8.50;99.90;;;;;;5055878;28;20448;-67
2022/01/02 02:30:38;;;;;;;0.40;0.40;;;8.50;99.90;;;;;;5055736;28;20428;-67
2022/01/02 02:33:25;;;;;;;0.40;0.40;;;8.40;99.90;;;;;;5055148;28;20425;-67
2022/01/02 02:36:13;;;;;;;0.40;0.40;;;8.40;99.90;;;;;;5055310;28;20475;-67
2022/01/02 02:39:01;;;;;;;0.40;0.40;;;8.40;99.90;;;;;;5055117;28;20436;-67
2022/01/02 02:41:49;;;;;;;0.40;0.40;;;8.30;99.90;;;;;;5055482;28;20958;-67
2022/01/02 02:44:38;;;;;;;0.40;0.40;;;8.30;99.90;;;;;;5055219;28;20498;-67
2022/01/02 02:50:29;;;;;;;0.40;0.40;;;8.50;99.90;;;;;;5064304;28;20502;-67
2022/01/02 02:53:17;;;;;;;0.40;0.40;;;8.40;99.90;;;;;;5067144;28;20477;-68
2022/01/02 02:56:14;;;;;;;0.40;0.40;;;8.40;99.90;;;;;;5073218;28;20466;-67
2022/01/02 02:59:05;;;;;;;0.40;0.40;;;8.40;99.90;;;;;;5054915;28;20443;-67
2022/01/02 03:01:52;;;;;;;0.40;0.40;;;8.40;99.90;;;;;;5068624;28;20427;-67
2022/01/02 03:04:39;;;;;;;0.50;0.50;;;8.40;99.90;;;;;;5073207;28;20430;-67
2022/01/02 03:07:26;;;;;;;0.40;0.40;;;8.40;99.90;;;;;;5098833;23;20483;-72
2022/01/02 03:10:16;;;;;;;0.40;0.40;;;8.60;99.90;;;;;;5075280;28;20435;-72
2022/01/02 03:13:04;;;;;;;0.40;0.40;;;8.40;99.90;;;;;;5074918;28;20427;-70
2022/01/02 03:15:51;;;;;;;0.40;0.40;;;8.50;99.90;;;;;;5075545;28;20517;-72
2022/01/02 03:18:38;;;;;;;0.40;0.40;;;8.50;99.90;;;;;;5075724;28;20451;-72
2022/01/02 03:21:26;;;;;;;0.40;0.40;;;8.50;99.90;;;;;;5076005;28;20463;-72
2022/01/02 03:24:13;;;;;;;0.40;0.40;;;8.60;99.90;;;;;;5075810;28;20435;-72
2022/01/02 03:27:00;;;;;;;0.40;0.40;;;8.60;99.90;;;;;;5075941;28;20519;-72
2022/01/02 03:29:48;;;;;;;0.40;0.40;;;8.80;99.90;;;;;;5075537;28;20423;-72
2022/01/02 03:32:35;;;;;;;0.40;0.40;;;8.70;99.90;;;;;;5075452;28;20473;-72
2022/01/02 03:35:22;;;;;;;0.40;0.40;;;8.80;99.90;;;;;;5075022;28;20466;-73
2022/01/02 03:38:10;;;;;;;0.40;0.40;;;8.70;99.90;;;;;;5075741;28;20418;-73
2022/01/02 03:40:57;;;;;;;0.40;0.40;;;8.70;99.90;;;;;;5075504;28;20819;-73
2022/01/02 03:43:43;;;;;;;0.40;0.40;;;8.70;99.90;;;;;;5075776;28;20455;-72
2022/01/02 03:46:32;;;;;;;0.40;0.40;;;8.90;99.90;;;;;;5074084;28;20482;-72
2022/01/02 03:49:19;;;;;;;0.40;0.40;;;9.00;99.90;;;;;;5075378;28;20955;-72
2022/01/02 03:52:06;;;;;;;0.40;0.40;;;8.80;99.90;;;;;;5074296;28;20427;-72
2022/01/02 03:54:53;;;;;;;0.40;0.40;;;8.90;99.90;;;;;;5075214;28;20472;-72
2022/01/02 03:57:41;;;;;;;0.40;0.40;;;8.80;99.90;;;;;;5075337;28;20475;-71
2022/01/02 04:00:28;;;;;;;0.40;0.40;;;8.80;99.90;;;;;;5074658;28;20438;-72
2022/01/02 04:03:16;;;;;;;0.40;0.40;;;8.90;99.90;;;;;;5073628;28;20496;-71
2022/01/02 04:06:03;;;;;;;0.40;0.40;;;8.90;99.90;;;;;;5073740;28;21027;-73
2022/01/02 04:08:50;;;;;;;0.50;0.50;;;8.90;99.90;;;;;;5074412;28;20485;-72
2022/01/02 04:11:37;;;;;;;0.40;0.40;;;8.90;99.90;;;;;;5074286;28;20460;-72
2022/01/02 04:14:24;;;;;;;0.40;0.40;;;9.00;99.90;;;;;;5073280;28;20426;-72
2022/01/02 04:17:11;;;;;;;0.40;0.40;;;8.90;99.90;;;;;;5073613;28;20954;-72
2022/01/02 04:19:59;;;;;;;0.40;0.40;;;8.90;99.90;;;;;;5073081;28;20651;-72
2022/01/02 04:22:46;;;;;;;0.40;0.40;;;9.10;99.90;;;;;;5071953;28;20424;-71
2022/01/02 04:25:33;;;;;;;0.40;0.40;;;8.90;99.90;;;;;;5072682;28;20423;-72
2022/01/02 04:28:20;;;;;;;0.40;0.40;;;8.80;99.90;;;;;;5073093;28;20837;-72
2022/01/02 04:31:09;;;;;;;0.50;0.50;;;8.80;99.90;;;;;;5072817;28;20424;-72
2022/01/02 04:33:56;;;;;;;0.40;0.40;;;8.90;99.90;;;;;;5073070;28;20431;-72
2022/01/02 04:36:44;;;;;;;0.40;0.40;;;8.90;99.90;;;;;;5072770;28;20525;-72
2022/01/02 04:39:31;;;;;;;0.40;0.40;;;9.00;99.90;;;;;;5072919;28;20423;-71
2022/01/02 04:42:18;;;;;;;0.40;0.40;;;8.90;99.90;;;;;;5073031;28;20943;-73
2022/01/02 04:45:07;;;;;;;4.63;4.23;;;8.90;99.90;;;;;;5073204;28;20532;-73
2022/01/02 04:47:55;;;;;;;0.50;0.50;;;8.90;99.90;;;;;;5073744;28;20852;-72
2022/01/02 04:50:42;;;;;;;0.40;0.40;;;8.80;99.90;;;;;;5072776;28;20430;-72
2022/01/02 04:53:30;;;;;;;0.40;0.40;;;8.80;99.90;;;;;;5072404;28;20420;-72
2022/01/02 04:56:17;;;;;;;0.50;0.50;;;8.80;99.90;;;;;;5072766;28;20479;-72
2022/01/02 04:59:04;;;;;;;0.40;0.40;;;8.70;99.90;;;;;;5073022;28;20504;-72
2022/01/02 05:01:51;;;;;;;0.40;0.40;;;8.60;99.90;;;;;;5073389;28;20679;-72
2022/01/02 05:04:38;;;;;;;0.50;0.50;;;8.50;99.90;;;;;;5073804;28;20459;-72
2022/01/02 05:07:25;;;;;;;0.40;0.40;;;8.40;99.90;;;;;;5073736;28;20455;-72
2022/01/02 05:10:13;;;;;;;0.40;0.40;;;8.40;99.90;;;;;;5075617;28;20457;-72
2022/01/02 05:13:00;;;;;;;0.40;0.40;;;8.30;99.90;;;;;;5076897;28;20419;-73
2022/01/02 05:15:47;;;;;;;0.40;0.40;;;8.30;99.90;;;;;;5077221;28;20470;-71
2022/01/02 05:18:34;;;;;;;0.40;0.40;;;8.30;99.90;;;;;;5077171;28;20942;-72
2022/01/02 05:21:21;;;;;;;0.40;0.40;;;8.30;99.90;;;;;;5076846;28;20442;-72
2022/01/02 05:24:08;;;;;;;0.40;0.40;;;8.30;99.90;;;;;;5076507;28;20431;-72
2022/01/02 05:26:57;;;;;;;0.50;0.50;;;8.20;99.90;;;;;;5076454;28;20485;-73
2022/01/02 05:29:43;;;;;;;0.40;0.40;;;8.30;99.90;;;;;;5076539;28;20798;-73
2022/01/02 05:32:30;;;;;;;0.40;0.40;;;8.40;99.90;;;;;;5076788;28;20427;-71
2022/01/02 05:35:17;;;;;;;0.40;0.40;;;8.40;99.90;;;;;;5077342;28;20844;-72
2022/01/02 05:38:04;;;;;;;0.40;0.40;;;8.30;99.90;;;;;;5076915;28;21188;-71
2022/01/02 05:40:53;;;;;;;0.40;0.40;;;8.30;99.90;;;;;;5076899;28;20457;-72
2022/01/02 05:43:41;;;;;;;0.43;0.43;;;8.30;99.90;;;;;;5076516;28;20420;-71
2022/01/02 05:46:28;;;;;;;0.40;0.40;;;8.20;99.90;;;;;;5076670;28;20516;-72
2022/01/02 05:49:15;;;;;;;0.40;0.40;;;8.20;99.90;;;;;;5076363;28;20423;-72
2022/01/02 05:52:02;;;;;;;0.40;0.40;;;8.20;99.90;;;;;;5076803;28;20473;-70
2022/01/02 05:54:48;;;;;;;0.40;0.40;;;8.20;99.90;;;;;;5076068;28;20422;-71
2022/01/02 05:57:36;;;;;;;0.40;0.40;;;8.20;99.90;;;;;;5077171;28;20475;-71
2022/01/02 06:00:24;;;;;;;0.40;0.40;;;8.30;99.90;;;;;;5077694;28;20435;-72
2022/01/02 06:03:11;;;;;;;0.40;0.40;;;8.30;99.90;;;;;;5076145;28;20424;-73
2022/01/02 06:05:57;;;;;;;0.40;0.40;;;8.30;99.90;;;;;;5075913;28;20963;-73
2022/01/02 06:08:44;;;;;;;0.50;0.50;;;8.30;99.90;;;;;;5076255;28;20422;-71
2022/01/02 06:11:31;;;;;;;0.40;0.40;;;8.40;99.90;;;;;;5076359;28;20430;-72
2022/01/02 06:14:18;;;;;;;0.40;0.40;;;8.40;99.90;;;;;;5076101;28;20476;-72
2022/01/02 06:17:06;;;;;;;0.40;0.40;;;8.50;99.90;;;;;;5075619;28;20905;-72
2022/01/02 06:19:53;;;;;;;0.40;0.40;;;8.50;99.90;;;;;;5076014;28;20887;-71
2022/01/02 06:22:40;;;;;;;0.50;0.50;;;8.50;99.90;;;;;;5074980;28;20455;-73
2022/01/02 06:25:27;;;;;;;0.40;0.40;;;8.70;99.90;;;;;;5076054;28;20427;-72
2022/01/02 06:28:14;;;;;;;0.40;0.40;;;8.60;99.90;;;;;;5076000;28;20500;-72
2022/01/02 06:31:01;;;;;;;0.40;0.40;;;8.80;99.90;;;;;;5075991;28;20428;-72
2022/01/02 06:33:49;;;;;;;0.50;0.50;;;8.90;99.90;;;;;;5074684;28;20423;-71
2022/01/02 06:36:36;;;;;;;0.60;0.60;;;8.90;99.90;;;;;;5075185;28;20520;-72
2022/01/02 06:39:23;;;;;;;0.40;0.40;;;9.10;99.90;;;;;;5074360;28;20427;-72
2022/01/02 06:42:10;;;;;;;0.40;0.40;;;9.00;99.90;;;;;;5075162;28;20492;-72
2022/01/02 06:44:57;;;;;;;0.40;0.40;;;9.10;99.90;;;;;;5074472;28;20460;-71
2022/01/02 06:47:44;;;;;;;0.40;0.40;;;9.10;99.90;;;;;;5074832;28;20480;-73
2022/01/02 06:50:33;;;;;;;0.50;0.50;;;9.20;99.90;;;;;;5074674;28;20450;-72
2022/01/02 06:53:20;;;;;;;0.40;0.40;;;9.10;99.90;;;;;;5074767;28;20420;-71
2022/01/02 06:56:07;;;;;;;0.40;0.40;;;9.20;99.90;;;;;;5074443;28;20461;-74
2022/01/02 06:58:54;;;;;;;0.50;0.50;;;9.20;99.90;;;;;;5074116;28;20776;-72
2022/01/02 07:01:41;;;;;;;0.40;0.40;;;9.20;99.90;;;;;;5073980;28;20485;-72
2022/01/02 07:04:27;;;;;;;0.40;0.40;;;9.20;99.90;;;;;;5075667;28;20573;-72
2022/01/02 07:07:16;;;;;;;0.40;0.40;;;9.40;99.90;;;;;;5074414;28;20883;-72
2022/01/02 07:10:03;;;;;;;0.40;0.40;;;9.30;99.90;;;;;;5074205;28;20427;-73
2022/01/02 07:12:50;;;;;;;0.40;0.40;;;9.40;99.90;;;;;;5074577;28;20481;-72
2022/01/02 07:15:37;;;;;;;0.50;0.50;;;9.40;99.90;;;;;;5074754;28;20899;-72
2022/01/02 07:18:23;;;;;;;0.40;0.40;;;9.50;99.90;;;;;;5074541;28;20468;-73
2022/01/02 07:21:10;;;;;;;0.40;0.40;;;9.50;99.90;;;;;;5074501;28;20469;-72
2022/01/02 07:23:59;;;;;;;0.40;0.40;;;9.60;99.90;;;;;;5074882;28;20480;-72
2022/01/02 07:26:46;;;;;;;0.40;0.40;;;9.60;99.90;;;;;;5075360;28;20477;-73
2022/01/02 07:29:33;;;;;;;0.40;0.40;;;9.70;99.90;;;;;;5073950;28;20419;-73
2022/01/02 07:32:20;;;;;;;0.40;0.40;;;9.60;99.90;;;;;;5074020;28;20430;-73
2022/01/02 07:35:08;;;;;;;0.50;0.50;;;9.60;99.90;;;;;;5074243;28;20965;-71
2022/01/02 07:37:55;;;;;;;0.40;0.40;;;9.70;99.90;;;;;;5075132;28;20840;-74
2022/01/02 07:40:43;;;;;;;0.40;0.40;;;9.60;99.90;;;;;;5074107;28;20446;-72
2022/01/02 07:43:30;;;;;;;0.40;0.40;;;9.60;99.90;;;;;;5074806;28;20427;-73
2022/01/02 07:46:17;;;;;;;0.40;0.40;;;9.70;99.90;;;;;;5074521;28;20920;-71
2022/01/02 07:49:04;;;;;;;0.40;0.40;;;9.70;99.90;;;;;;5074404;28;20419;-72
2022/01/02 07:51:51;;;;;;;0.40;0.40;;;9.80;99.90;;;;;;5074247;28;20458;-74
2022/01/02 07:54:38;;;;;;;0.40;0.40;;;9.80;99.90;;;;;;5073186;28;20427;-72
2022/01/02 07:57:26;;;;;;;0.50;0.50;;;10.10;99.90;;;;;;5073084;28;20460;-72
2022/01/02 08:00:15;;;;;;;0.40;0.40;;;10.00;99.90;;;;;;5073618;28;20710;-73
2022/01/02 08:03:01;;;;;;;0.40;0.40;;;10.00;99.90;;;;;;5073646;28;20455;-72
2022/01/02 08:05:48;;;;;;;0.50;0.50;;;10.00;99.90;;;;;;5072866;28;20459;-72
2022/01/02 08:08:35;;;;;;;0.40;0.40;;;10.10;99.90;;;;;;5072411;28;20941;-73
2022/01/02 08:11:22;;;;;;;0.40;0.40;;;10.30;99.90;;;;;;5072991;28;20505;-71
2022/01/02 08:14:11;;;;;;;0.40;0.40;;;10.10;99.90;;;;;;5073001;28;20845;-72
2022/01/02 08:16:58;;;;;;;0.40;0.40;;;10.30;99.90;;;;;;5072994;28;20463;-73
2022/01/02 08:19:45;;;;;;;0.40;0.40;;;10.40;99.90;;;;;;5072481;28;20455;-72
2022/01/02 08:22:32;;;;;;;0.43;0.43;;;10.50;99.90;;;;;;5072635;28;20451;-73
2022/01/02 08:25:19;;;;;;;0.40;0.40;;;10.50;99.90;;;;;;5073325;28;20945;-72
2022/01/02 08:28:06;;;;;;;0.40;0.40;;;10.50;99.90;;;;;;5072844;28;20415;-72
2022/01/02 08:30:54;;;;;;;0.40;0.40;;;10.60;99.90;;;;;;5072900;28;20427;-72
2022/01/02 08:33:41;;;;;;;0.40;0.40;;;10.60;99.90;;;;;;5072905;28;20442;-72
2022/01/02 08:36:28;;;;;;;0.40;0.40;;;10.60;99.90;;;;;;5073756;28;20544;-72
2022/01/02 08:39:15;;;;;;;0.40;0.40;;;10.60;99.90;;;;;;5073518;28;20423;-73
2022/01/02 08:42:02;;;;;;;0.40;0.40;;;10.60;99.90;;;;;;5073082;28;20432;-72
2022/01/02 08:44:49;;;;;;;0.40;0.40;;;10.70;99.90;;;;;;5075481;28;20484;-71
2022/01/02 08:47:37;;;;;;;3.53;1.03;;;10.70;99.90;;;;;;5076720;28;20793;-72
2022/01/02 08:50:24;;;;;;;0.40;0.40;;;10.80;99.90;;;;;;5076866;28;20482;-72
2022/01/02 08:53:11;;;;;;;0.40;0.40;;;10.80;99.90;;;;;;5077287;28;20492;-71
2022/01/02 08:55:58;;;;;;;0.40;0.40;;;10.90;99.90;;;;;;5076925;28;20514;-72
2022/01/02 08:58:45;;;;;;;0.40;0.40;;;10.90;99.90;;;;;;5077262;28;20464;-72
2022/01/02 09:01:31;;;;;;;0.40;0.40;;;10.90;99.90;;;;;;5077808;28;20472;-72
2022/01/02 09:04:20;;;;;;;0.40;0.40;;;10.90;99.90;;;;;;5078298;28;20938;-71
2022/01/02 09:07:07;;;;;;;0.40;0.40;;;11.00;99.90;;;;;;5077467;28;20532;-70
2022/01/02 09:09:53;;;;;;;0.70;0.67;;;11.00;99.90;;;;;;5077946;28;20947;-71
2022/01/02 09:12:40;;;;;;;0.40;0.40;;;11.10;99.90;;;;;;5076297;28;20943;-71
2022/01/02 09:15:27;;;;;;;0.40;0.40;;;11.20;99.90;;;;;;5076478;28;20423;-72
2022/01/02 09:18:14;;;;;;;0.40;0.40;;;11.10;99.90;;;;;;5076153;28;20458;-73
2022/01/02 09:21:03;;;;;;;0.40;0.40;;;11.10;99.90;;;;;;5076251;28;20508;-71
2022/01/02 09:23:50;;;;;;;0.40;0.40;;;11.20;99.90;;;;;;5076298;28;20508;-71
2022/01/02 09:26:36;;;;;;;0.40;0.40;;;11.20;99.90;;;;;;5076427;28;20975;-72
2022/01/02 09:29:23;;;;;;;0.40;0.40;;;11.10;99.90;;;;;;5075652;28;20509;-74
2022/01/02 09:32:10;;;;;;;0.40;0.40;;;11.10;99.90;;;;;;5077213;28;20943;-73
2022/01/02 09:34:57;;;;;;;0.40;0.40;;;11.10;99.90;;;;;;5076508;28;20450;-71
2022/01/02 09:37:45;;;;;;;0.40;0.40;;;11.10;99.90;;;;;;5076325;28;21000;-72
2022/01/02 09:40:33;;;;;;;0.40;0.40;;;11.30;99.90;;;;;;5076222;28;20456;-71
2022/01/02 09:43:20;;;;;;;0.40;0.40;;;11.20;99.90;;;;;;5077981;28;20802;-72
2022/01/02 09:46:07;;;;;;;0.40;0.40;;;11.30;99.90;;;;;;5076312;28;20454;-73
2022/01/02 09:48:56;;;;;;;0.40;0.40;;;11.30;99.90;;;;;;5075764;28;20462;-73
2022/01/02 09:51:43;;;;;;;0.40;0.40;;;11.40;99.90;;;;;;5076414;28;20427;-73
2022/01/02 09:54:33;;;;;;;0.40;0.40;;;11.40;99.90;;;;;;5076063;28;20419;-71
2022/01/02 09:57:20;;;;;;;0.40;0.40;;;11.50;99.90;;;;;;5074240;28;21010;-72
2022/01/02 10:00:08;;;;;;;0.40;0.40;;;11.50;99.90;;;;;;5075579;28;20451;-72
2022/01/02 10:03:00;;;;;;;0.40;0.40;;;11.50;99.90;;;;;;5057195;28;20432;-71
2022/01/02 10:05:53;;;;;;;0.40;0.40;;;11.40;99.90;;;;;;5058242;28;20464;-71
2022/01/02 10:08:41;;;;;;;0.60;0.60;;;11.40;99.90;;;;;;5056228;28;20422;-72
2022/01/02 10:11:29;;;;;;;0.50;0.50;;;11.40;99.90;;;;;;5056618;28;20637;-72
2022/01/02 10:14:16;;;;;;;0.40;0.40;;;11.50;99.90;;;;;;5056285;28;20424;-72
2022/01/02 10:17:03;;;;;;;0.40;0.40;;;11.70;99.90;;;;;;5056630;28;20464;-71
2022/01/02 10:19:50;;;;;;;0.40;0.40;;;11.60;99.90;;;;;;5056550;28;20428;-72
2022/01/02 10:22:37;;;;;;;0.40;0.40;;;11.60;99.90;;;;;;5056493;28;20956;-72
2022/01/02 10:25:37;;;;;;;0.40;0.40;;;11.70;99.90;;;;;;5056293;28;20503;-72
2022/01/02 10:28:34;;;;;;;0.40;0.40;;;11.70;99.90;;;;;;5056704;28;20423;-72
2022/01/02 10:31:21;;;;;;;0.40;0.40;;;11.70;99.90;;;;;;5056618;28;20421;-72
2022/01/02 10:34:08;;;;;;;0.40;0.40;;;11.90;99.90;;;;;;5056001;28;20489;-72
2022/01/02 10:36:55;;;;;;;0.40;0.40;;;11.70;99.90;;;;;;5056397;28;20482;-71
2022/01/02 10:39:42;;;;;;;0.40;0.40;;;11.60;99.90;;;;;;5056135;28;20805;-72
2022/01/02 10:42:29;;;;;;;0.40;0.40;;;11.70;99.90;;;;;;5056343;28;20425;-72
2022/01/02 10:45:30;;;;;;;0.40;0.40;;;11.60;99.90;;;;;;5056193;28;20916;-73
2022/01/02 10:48:29;;;;;;;0.40;0.40;;;11.50;99.90;;;;;;5056800;28;20419;-72
2022/01/02 10:51:17;;;;;;;0.40;0.40;;;11.40;99.90;;;;;;5056943;28;20932;-72
2022/01/02 10:54:04;;;;;;;0.40;0.40;;;11.60;99.90;;;;;;5055834;28;20423;-72
2022/01/02 10:56:51;;;;;;;0.40;0.40;;;11.50;99.90;;;;;;5055610;28;20444;-72
2022/01/02 10:59:40;;;;;;;0.40;0.40;;;11.50;99.90;;;;;;5055542;28;20940;-72
2022/01/02 11:02:29;;;;;;;0.40;0.40;;;11.40;99.90;;;;;;5074764;28;20427;-71
2022/01/02 11:05:18;;;;;;;0.40;0.40;;;11.50;99.90;;;;;;5074219;28;20438;-72
2022/01/02 11:08:06;;;;;;;0.40;0.40;;;11.40;99.90;;;;;;5074675;28;20412;-72
2022/01/02 11:10:56;;;;;;;0.40;0.40;;;11.40;99.90;;;;;;5073779;28;20837;-71
2022/01/02 11:13:43;;;;;;;0.40;0.40;;;11.40;99.90;;;;;;5074704;28;20472;-74
2022/01/02 11:16:34;;;;;;;0.40;0.40;;;11.40;99.90;;;;;;5074206;28;20443;-72
2022/01/02 11:19:23;;;;;;;0.40;0.40;;;11.40;99.90;;;;;;5074770;28;20419;-73
2022/01/02 11:22:13;;;;;;;0.40;0.40;;;11.50;99.90;;;;;;5073541;28;20849;-72
2022/01/02 11:25:08;;;;;;;0.40;0.40;;;11.50;99.90;;;;;;5074086;28;20430;-72
2022/01/02 11:28:00;;;;;;;0.40;0.40;;;11.50;99.90;;;;;;5074503;28;20827;-72
2022/01/02 11:30:50;;;;;;;0.40;0.40;;;11.40;99.90;;;;;;5073807;28;20489;-71
2022/01/02 11:33:40;;;;;;;0.40;0.40;;;11.40;99.90;;;;;;5073582;28;20427;-72
2022/01/02 11:36:30;;;;;;;0.40;0.40;;;11.40;99.90;;;;;;5073546;28;20448;-72
2022/01/02 11:39:17;;;;;;;0.40;0.40;;;11.40;99.90;;;;;;5074624;28;20482;-73
2022/01/02 11:42:04;;;;;;;0.40;0.40;;;11.50;99.90;;;;;;5074179;28;20434;-71
2022/01/02 11:44:51;;;;;;;0.40;0.40;;;11.40;99.90;;;;;;5073329;28;20513;-73
2022/01/02 11:47:39;;;;;;;0.40;0.40;;;11.40;99.90;;;;;;5073881;28;20450;-71
2022/01/02 11:50:44;;;;;;;0.40;0.40;;;11.50;99.90;;;;;;5073551;28;20431;-72
2022/01/02 11:53:35;;;;;;;0.40;0.40;;;11.30;99.90;;;;;;5074209;28;20411;-71
2022/01/02 11:56:32;;;;;;;0.40;0.40;;;11.40;99.90;;;;;;5073707;28;20540;-72
2022/01/02 11:59:56;;;;;;;0.40;0.40;;;11.30;99.90;;;;;;5072793;28;20998;-71
2022/01/02 12:02:43;;;;;;;0.40;0.40;;;11.30;99.90;;;;;;5053492;28;20431;-70
2022/01/02 12:05:30;;;;;;;0.40;0.40;;;11.30;99.90;;;;;;5053193;28;20420;-73
2022/01/02 12:08:35;;;;;;;0.40;0.40;;;11.30;99.90;;;;;;5055228;28;20780;-72
2022/01/02 12:11:49;;;;;;;0.40;0.40;;;11.30;99.90;;;;;;5054841;28;20416;-70
2022/01/02 12:14:55;;;;;;;0.40;0.40;;;11.20;99.90;;;;;;5053800;28;20438;-72
2022/01/02 12:18:05;;;;;;;0.40;0.40;;;11.20;99.90;;;;;;5055511;28;21006;-72
2022/01/02 12:21:12;;;;;;;1.43;1.43;;;11.20;99.90;;;;;;5053060;28;20418;-72
2022/01/02 12:24:02;;;;;;;0.40;0.40;;;11.30;99.90;;;;;;5054645;28;20424;-71
2022/01/02 12:26:50;;;;;;;0.40;0.40;;;11.10;99.90;;;;;;5054910;28;20440;-72
2022/01/02 12:29:37;;;;;;;1.10;1.00;;;11.10;99.90;;;;;;5068906;28;20517;-73
2022/01/02 12:32:26;;;;;;;0.40;0.40;;;11.00;99.90;;;;;;5053964;28;20947;-71
2022/01/02 12:35:13;;;;;;;0.40;0.40;;;11.00;99.90;;;;;;5054212;28;20420;-72
2022/01/02 12:38:05;;;;;;;0.40;0.40;;;11.00;99.90;;;;;;5054223;28;20464;-71
2022/01/02 12:41:00;;;;;;;0.40;0.40;;;10.90;99.90;;;;;;5053077;28;20424;-71
2022/01/02 12:43:54;;;;;;;0.40;0.40;;;10.90;99.90;;;;;;5053990;28;20538;-71
2022/01/02 12:46:44;;;;;;;0.40;0.40;;;10.90;99.90;;;;;;5053966;28;20470;-71
2022/01/02 12:49:33;;;;;;;0.40;0.40;;;10.80;99.90;;;;;;5054152;28;20429;-72
2022/01/02 12:52:20;;;;;;;0.40;0.40;;;11.00;99.90;;;;;;5054226;28;20928;-72
2022/01/02 12:55:10;;;;;;;0.40;0.40;;;11.00;99.90;;;;;;5053767;28;20444;-71
2022/01/02 12:58:09;;;;;;;0.40;0.40;;;10.90;99.90;;;;;;5053896;28;20474;-72
2022/01/02 13:01:03;;;;;;;0.40;0.40;;;11.00;99.90;;;;;;5060013;28;20423;-72
2022/01/02 13:03:50;;;;;;;1.00;1.00;;;10.90;99.90;;;;;;5072556;28;20415;-71
2022/01/02 13:06:37;;;;;;;0.40;0.40;;;10.90;99.90;;;;;;5072382;28;21001;-71
2022/01/02 13:09:26;;;;;;;0.40;0.40;;;11.00;99.90;;;;;;5072982;28;20438;-72
2022/01/02 13:12:15;;;;;;;0.40;0.40;;;11.20;99.90;;;;;;5073570;28;20505;-72
2022/01/02 13:15:06;;;;;;;0.40;0.40;;;11.10;99.90;;;;;;5073520;28;20419;-72
2022/01/02 13:17:54;;;;;;;0.40;0.40;;;11.10;99.90;;;;;;5072621;28;20459;-71
2022/01/02 13:20:43;;;;;;;0.40;0.40;;;11.00;99.90;;;;;;5072358;28;20423;-71
2022/01/02 13:23:30;;;;;;;0.40;0.40;;;11.10;99.90;;;;;;5073204;28;20423;-72
2022/01/02 13:26:18;;;;;;;0.40;0.40;;;11.20;99.90;;;;;;5073545;28;20446;-72
2022/01/02 13:29:05;;;;;;;0.43;0.43;;;11.10;99.90;;;;;;5072498;28;20490;-71
2022/01/02 13:31:57;;;;;;;0.40;0.40;;;11.20;99.90;;;;;;5076980;28;20451;-73
2022/01/02 13:34:45;;;;;;;0.40;0.40;;;11.10;99.90;;;;;;5076813;28;20427;-72
2022/01/02 13:37:34;;;;;;;0.40;0.40;;;11.00;99.90;;;;;;5076110;28;20951;-72
2022/01/02 13:40:27;;;;;;;0.40;0.40;;;11.10;99.90;;;;;;5075935;28;20419;-75
2022/01/02 13:43:16;;;;;;;0.40;0.40;;;10.90;99.90;;;;;;5076462;28;20431;-72
2022/01/02 13:46:03;;;;;;;0.40;0.40;;;10.90;99.90;;;;;;5076309;28;20451;-72
2022/01/02 13:48:52;;;;;;;0.50;0.50;;;10.90;99.90;;;;;;5075697;28;20431;-71
2022/01/02 13:51:39;;;;;;;0.40;0.40;;;11.00;99.90;;;;;;5076038;28;20431;-72
2022/01/02 13:54:27;;;;;;;0.40;0.40;;;10.80;99.90;;;;;;5075841;28;20497;-72
2022/01/02 13:57:15;;;;;;;0.40;0.40;;;10.70;99.90;;;;;;5075445;28;20450;-73
2022/01/02 14:00:16;;;;;;;0.40;0.40;;;10.80;99.90;;;;;;5075530;28;20415;-72
2022/01/02 14:03:03;;;;;;;0.40;0.40;;;10.80;99.90;;;;;;5055598;28;20872;-72
2022/01/02 14:05:51;;;;;;;0.40;0.40;;;10.80;99.90;;;;;;5056527;28;20527;-73
2022/01/02 14:08:40;;;;;;;0.40;0.40;;;10.90;99.90;;;;;;5056889;28;20554;-71
2022/01/02 14:11:31;;;;;;;0.50;0.50;;;10.80;99.90;;;;;;5056609;28;20515;-71
2022/01/02 14:14:22;;;;;;;0.40;0.40;;;10.90;99.90;;;;;;5057100;28;20436;-71
2022/01/02 14:17:30;;;;;;;0.87;0.87;;;10.80;99.90;;;;;;5055829;28;20454;-72
2022/01/02 14:20:19;;;;;;;0.40;0.40;;;10.80;99.90;;;;;;5056402;28;20424;-71
2022/01/02 14:23:07;;;;;;;0.40;0.40;;;10.80;99.90;;;;;;5054569;28;20471;-72
2022/01/02 14:25:54;;;;;;;0.40;0.40;;;10.60;99.90;;;;;;5055117;28;20447;-71
2022/01/02 14:28:41;;;;;;;0.50;0.50;;;10.70;99.90;;;;;;5055311;28;20420;-71
2022/01/02 14:31:28;;;;;;;0.40;0.40;;;10.60;99.90;;;;;;5055004;28;20451;-72
2022/01/02 14:34:15;;;;;;;0.40;0.40;;;10.60;99.90;;;;;;5055979;28;20808;-72
2022/01/02 14:37:02;;;;;;;0.40;0.40;;;10.60;99.90;;;;;;5055402;28;20497;-72
2022/01/02 14:39:50;;;;;;;0.40;0.40;;;10.70;99.90;;;;;;5056186;28;20660;-72
2022/01/02 14:42:40;;;;;;;0.40;0.40;;;10.60;99.90;;;;;;5056012;28;20428;-72
2022/01/02 14:45:26;;;;;;;0.50;0.50;;;10.80;99.90;;;;;;5055773;28;20952;-71
2022/01/02 14:48:14;;;;;;;0.40;0.40;;;10.70;99.90;;;;;;5056813;28;20477;-71